MMOX/OAX METAR and TAF weather

Enter ICAO airport designator
Station Type Date Time Source
MMOX METAR 2019/02/18 01:46 UTC NOAA

MMOX 180146Z 16010KT 7SM SCT120 25/08 A3009 RMK 8/030


Station Type Date Time Source
MMOX Decoded METAR 2019/02/18 01:46 UTC NOAA

Oaxaca / Xoxocotlan, Mexico (MMOX) 16-58N 096-44W
Feb 17, 2019 - 08:46 PM EST / 2019.02.18 0146 UTC
Wind: from the SSE (160 degrees) at 12 MPH (10 KT):0
Visibility: 7 mile(s):0
Sky conditions: partly cloudy
Temperature: 77 F (25 C)
Dew Point: 46 F (8 C)
Relative Humidity: 33%
Pressure (altimeter): 30.09 in. Hg (1018 hPa)
ob: MMOX 180146Z 16010KT 7SM SCT120 25/08 A3009 RMK 8/030
cycle: 2

Station Type Date Time Source
MMOX TAF 2019/02/17 18:14 UTC NOAA

TAF MMOX 171608Z 1718/1818 22008KT P6SM SCT020
FM180400 30005KT P6SM SKC
FM181600 15008KT P6SM SKC


Example: see airport list